createdAt,value
2017-07-08T00:01:35.313Z,90.20
2017-07-08T00:04:03.590Z,90.30
2017-07-08T00:06:31.900Z,90.30
2017-07-08T00:09:00.172Z,90.40
2017-07-08T00:11:28.485Z,90.30
2017-07-08T00:13:56.760Z,90.40
2017-07-08T00:16:25.036Z,90.50
2017-07-08T00:18:52.576Z,90.50
2017-07-08T00:21:20.853Z,90.70
2017-07-08T00:23:49.170Z,90.80
2017-07-08T00:26:17.440Z,90.80
2017-07-08T00:28:45.741Z,90.80
2017-07-08T00:31:14.016Z,90.70
2017-07-08T00:33:42.337Z,90.50
2017-07-08T00:36:10.602Z,90.50
2017-07-08T00:38:38.881Z,90.50
2017-07-08T00:41:07.191Z,90.50
2017-07-08T00:43:35.470Z,90.60
2017-07-08T00:46:03.781Z,90.30
2017-07-08T00:48:32.062Z,90.30
2017-07-08T00:51:00.379Z,90.40
2017-07-08T00:53:28.676Z,90.40
2017-07-08T00:55:56.996Z,90.40
2017-07-08T00:58:25.335Z,90.50
2017-07-08T01:00:53.890Z,90.50
2017-07-08T01:03:22.240Z,90.60
2017-07-08T01:05:50.522Z,90.60
2017-07-08T01:08:18.815Z,90.50
2017-07-08T01:10:47.164Z,90.40
2017-07-08T01:13:15.463Z,90.40
2017-07-08T01:15:43.797Z,90.50
2017-07-08T01:18:12.073Z,90.30
2017-07-08T01:20:40.350Z,90.40
2017-07-08T01:23:08.673Z,90.40
2017-07-08T01:25:36.948Z,90.50
2017-07-08T01:28:05.245Z,90.60
2017-07-08T01:30:33.517Z,90.60
2017-07-08T01:33:01.833Z,91.00
2017-07-08T01:35:30.134Z,90.80
2017-07-08T01:37:58.405Z,90.60
2017-07-08T01:40:26.732Z,90.60
2017-07-08T01:42:55.001Z,90.70
2017-07-08T01:45:23.265Z,90.70
2017-07-08T01:47:51.569Z,90.80
2017-07-08T01:50:20.778Z,90.90
2017-07-08T01:52:49.060Z,90.80
2017-07-08T01:55:16.617Z,90.80
2017-07-08T01:57:44.124Z,90.80
2017-07-08T02:00:12.401Z,91.00
2017-07-08T02:02:40.742Z,91.00
2017-07-08T02:05:09.018Z,90.90
2017-07-08T02:07:37.294Z,90.90
2017-07-08T02:10:05.618Z,90.90
2017-07-08T02:12:33.895Z,90.90
2017-07-08T02:15:02.206Z,90.90
2017-07-08T02:17:30.509Z,90.90
2017-07-08T02:19:58.784Z,90.90
2017-07-08T02:22:27.094Z,91.10
2017-07-08T02:24:55.397Z,91.10
2017-07-08T02:27:23.673Z,91.00
2017-07-08T02:29:51.991Z,90.90
2017-07-08T02:32:20.261Z,90.90
2017-07-08T02:34:48.544Z,90.90
2017-07-08T02:37:16.107Z,90.90
2017-07-08T02:39:44.382Z,90.40
2017-07-08T02:42:12.661Z,90.60
2017-07-08T02:44:40.229Z,90.60
2017-07-08T02:47:08.509Z,90.90
2017-07-08T02:49:36.821Z,90.90
2017-07-08T02:52:05.105Z,90.70
2017-07-08T02:54:33.377Z,90.80
2017-07-08T02:57:01.708Z,91.00
2017-07-08T02:59:29.978Z,91.20
2017-07-08T03:01:58.252Z,91.40
2017-07-08T03:04:26.559Z,91.40
2017-07-08T03:06:54.882Z,91.40
2017-07-08T03:09:23.162Z,91.40
2017-07-08T03:11:51.445Z,91.20
2017-07-08T03:14:19.745Z,91.00
2017-07-08T03:16:48.020Z,91.00
2017-07-08T03:19:16.342Z,90.70
2017-07-08T03:21:44.620Z,90.60
2017-07-08T03:24:12.949Z,90.80
2017-07-08T03:26:41.223Z,91.00
2017-07-08T03:29:09.504Z,91.30
2017-07-08T03:31:37.821Z,91.70
2017-07-08T03:34:06.096Z,91.80
2017-07-08T03:36:34.374Z,92.00
2017-07-08T03:39:02.679Z,92.00
2017-07-08T03:41:31.016Z,91.90
2017-07-08T03:43:59.330Z,91.90
2017-07-08T03:46:27.613Z,92.00
2017-07-08T03:48:55.950Z,91.90
2017-07-08T03:51:24.254Z,92.00
2017-07-08T03:53:52.594Z,92.10
2017-07-08T03:56:20.888Z,92.20
2017-07-08T03:58:49.233Z,92.30
2017-07-08T04:01:17.321Z,92.30
2017-07-08T04:03:45.620Z,92.50
2017-07-08T04:06:13.964Z,92.50
2017-07-08T04:08:42.311Z,92.80
2017-07-08T04:11:10.585Z,93.00
2017-07-08T04:13:38.857Z,93.10
2017-07-08T04:16:07.177Z,93.10
2017-07-08T04:18:35.453Z,93.10
2017-07-08T04:21:03.737Z,93.40
2017-07-08T04:23:32.045Z,93.40
2017-07-08T04:26:00.317Z,93.40
2017-07-08T04:28:28.595Z,93.00
2017-07-08T04:30:56.905Z,93.20
2017-07-08T04:33:25.226Z,92.80
2017-07-08T04:35:53.562Z,92.70
2017-07-08T04:38:21.092Z,92.70
2017-07-08T04:40:49.405Z,92.30
2017-07-08T04:43:17.711Z,92.30
2017-07-08T04:45:45.989Z,92.20
2017-07-08T04:48:14.292Z,92.40
2017-07-08T04:50:42.622Z,92.80
2017-07-08T04:53:10.902Z,92.90
2017-07-08T04:55:39.180Z,93.00
2017-07-08T04:58:07.502Z,93.00
2017-07-08T05:00:35.776Z,93.00
2017-07-08T05:03:04.047Z,92.70
2017-07-08T05:05:32.357Z,92.80
2017-07-08T05:08:00.632Z,93.30
2017-07-08T05:10:28.944Z,93.20
2017-07-08T05:12:57.230Z,93.20
2017-07-08T05:15:25.518Z,93.50
2017-07-08T05:17:53.819Z,93.10
2017-07-08T05:20:22.106Z,93.40
2017-07-08T05:22:50.417Z,93.50
2017-07-08T05:25:18.696Z,93.40
2017-07-08T05:27:46.978Z,93.50
2017-07-08T05:30:15.285Z,93.30
2017-07-08T05:32:43.564Z,93.30
2017-07-08T05:35:11.838Z,93.00
2017-07-08T05:37:40.145Z,92.70
2017-07-08T05:40:08.404Z,92.80
2017-07-08T05:42:36.718Z,93.00
2017-07-08T05:45:05.002Z,92.50
2017-07-08T05:47:33.280Z,92.40
2017-07-08T05:50:01.576Z,92.50
2017-07-08T05:52:29.850Z,92.30
2017-07-08T05:54:58.158Z,92.80
2017-07-08T05:57:26.487Z,92.20
2017-07-08T05:59:54.798Z,92.30
2017-07-08T06:02:23.102Z,91.60
2017-07-08T06:04:51.404Z,91.90
2017-07-08T06:07:19.701Z,92.10
2017-07-08T06:09:48.004Z,92.10
2017-07-08T06:12:16.280Z,91.90
2017-07-08T06:14:44.582Z,91.60
2017-07-08T06:17:12.904Z,91.70
2017-07-08T06:19:41.188Z,91.40
2017-07-08T06:22:09.492Z,91.50
2017-07-08T06:24:37.796Z,91.60
2017-07-08T06:27:06.070Z,91.60
2017-07-08T06:29:34.427Z,91.70
2017-07-08T06:32:02.700Z,91.60
2017-07-08T06:34:30.976Z,92.20
2017-07-08T06:36:59.275Z,91.90
2017-07-08T06:39:27.553Z,91.30
2017-07-08T06:41:55.874Z,91.30
2017-07-08T06:44:24.152Z,90.80
2017-07-08T06:46:52.670Z,90.80
2017-07-08T06:49:20.960Z,90.10
2017-07-08T06:51:49.246Z,90.10
2017-07-08T06:54:17.546Z,90.00
2017-07-08T06:56:45.059Z,90.00
2017-07-08T06:59:13.370Z,90.10
2017-07-08T07:01:41.668Z,88.50
2017-07-08T07:04:09.998Z,87.80
2017-07-08T07:06:38.327Z,88.90
2017-07-08T07:09:05.874Z,89.00
2017-07-08T07:11:34.148Z,87.40
2017-07-08T07:14:01.677Z,87.30
2017-07-08T07:16:30.000Z,87.80
2017-07-08T07:18:58.270Z,87.80
2017-07-08T07:21:26.569Z,87.50
2017-07-08T07:23:54.893Z,87.00
2017-07-08T07:26:23.168Z,86.70
2017-07-08T07:28:51.449Z,86.60
2017-07-08T07:31:19.807Z,86.70
2017-07-08T07:33:48.072Z,86.60
2017-07-08T07:36:16.344Z,88.10
2017-07-08T07:38:44.685Z,88.10
2017-07-08T07:41:12.969Z,88.50
2017-07-08T07:43:41.296Z,87.40
2017-07-08T07:46:09.584Z,83.30
2017-07-08T07:48:37.863Z,80.60
2017-07-08T07:51:06.241Z,81.90
2017-07-08T07:53:34.500Z,83.00
2017-07-08T07:56:02.769Z,80.20
2017-07-08T07:58:31.100Z,80.30
2017-07-08T08:00:59.386Z,81.50
2017-07-08T08:03:27.716Z,73.50
2017-07-08T08:05:55.993Z,74.50
2017-07-08T08:08:24.266Z,73.40
2017-07-08T08:10:51.808Z,73.40
2017-07-08T08:13:20.084Z,75.50
2017-07-08T08:15:48.406Z,75.40
2017-07-08T08:18:15.917Z,75.40
2017-07-08T08:20:44.194Z,75.20
2017-07-08T08:23:12.501Z,74.30
2017-07-08T08:25:40.821Z,71.60
2017-07-08T08:28:09.105Z,74.10
2017-07-08T08:30:37.414Z,74.20
2017-07-08T08:33:05.755Z,72.10
2017-07-08T08:35:34.029Z,70.50
2017-07-08T08:38:02.311Z,69.50
2017-07-08T08:40:30.633Z,70.90
2017-07-08T08:42:58.906Z,71.80
2017-07-08T08:45:27.179Z,66.80
2017-07-08T08:47:55.510Z,68.20
2017-07-08T08:50:23.803Z,68.70
2017-07-08T08:52:52.080Z,69.40
2017-07-08T08:55:20.383Z,69.50
2017-07-08T08:57:48.690Z,70.10
2017-07-08T09:00:16.985Z,67.90
2017-07-08T09:02:45.281Z,62.10
2017-07-08T09:05:13.553Z,62.40
2017-07-08T09:07:41.826Z,58.60
2017-07-08T09:10:10.149Z,64.00
2017-07-08T09:12:38.473Z,62.80
2017-07-08T09:15:06.743Z,65.80
2017-07-08T09:17:35.023Z,61.70
2017-07-08T09:20:03.328Z,65.20
2017-07-08T09:22:31.600Z,60.70
2017-07-08T09:24:59.888Z,61.70
2017-07-08T09:27:28.192Z,64.50
2017-07-08T09:29:56.508Z,62.40
2017-07-08T09:32:24.780Z,62.30
2017-07-08T09:34:53.037Z,61.70
2017-07-08T09:37:21.325Z,59.70
2017-07-08T09:39:49.653Z,64.00
2017-07-08T09:42:17.924Z,65.20
2017-07-08T09:44:46.212Z,59.50
2017-07-08T09:47:14.510Z,58.50
2017-07-08T09:49:42.769Z,58.60
2017-07-08T09:52:11.069Z,58.60
2017-07-08T09:54:39.341Z,59.80
2017-07-08T09:57:07.611Z,59.50
2017-07-08T09:59:35.913Z,62.10
2017-07-08T10:02:04.180Z,60.50
2017-07-08T10:04:32.501Z,59.00
2017-07-08T10:07:00.774Z,59.10
2017-07-08T10:09:29.041Z,61.20
2017-07-08T10:11:57.341Z,61.70
2017-07-08T10:14:25.601Z,62.90
2017-07-08T10:16:53.868Z,57.60
2017-07-08T10:19:22.185Z,58.60
2017-07-08T10:21:50.451Z,59.20
2017-07-08T10:24:18.725Z,57.70
2017-07-08T10:26:47.062Z,57.40
2017-07-08T10:29:15.352Z,59.70
2017-07-08T10:31:43.613Z,59.30
2017-07-08T10:34:11.920Z,56.00
2017-07-08T10:36:40.213Z,56.30
2017-07-08T10:39:08.517Z,54.30
2017-07-08T10:41:36.795Z,56.50
2017-07-08T10:44:05.058Z,55.40
2017-07-08T10:46:33.365Z,60.00
2017-07-08T10:49:01.626Z,57.00
2017-07-08T10:51:29.933Z,56.70
2017-07-08T10:53:58.211Z,53.70
2017-07-08T10:56:26.486Z,53.70
2017-07-08T10:58:54.029Z,53.70
2017-07-08T11:01:22.299Z,53.00
2017-07-08T11:03:50.576Z,53.40
2017-07-08T11:06:18.905Z,54.60
2017-07-08T11:08:47.222Z,54.10
2017-07-08T11:11:15.493Z,52.50
2017-07-08T11:13:43.814Z,51.60
2017-07-08T11:16:12.128Z,53.60
2017-07-08T11:18:40.404Z,54.10
2017-07-08T11:21:08.679Z,52.50
2017-07-08T11:23:36.992Z,55.10
2017-07-08T11:26:05.269Z,53.80
2017-07-08T11:28:32.782Z,53.80
2017-07-08T11:31:01.109Z,54.50
2017-07-08T11:33:29.377Z,51.30
2017-07-08T11:35:57.650Z,53.40
2017-07-08T11:38:25.979Z,53.70
2017-07-08T11:40:54.255Z,53.30
2017-07-08T11:43:22.530Z,52.70
2017-07-08T11:45:50.850Z,53.40
2017-07-08T11:48:19.110Z,51.70
2017-07-08T11:50:46.617Z,51.70
2017-07-08T11:53:14.928Z,52.40
2017-07-08T11:55:43.207Z,52.70
2017-07-08T11:58:11.515Z,52.90
2017-07-08T12:00:39.787Z,53.00
2017-07-08T12:03:08.053Z,53.00
2017-07-08T12:05:36.348Z,53.90
2017-07-08T12:08:03.897Z,53.90
2017-07-08T12:10:32.169Z,52.60
2017-07-08T12:13:00.435Z,53.20
2017-07-08T12:15:27.990Z,53.10
2017-07-08T12:17:56.259Z,53.80
2017-07-08T12:20:24.527Z,53.00
2017-07-08T12:22:52.833Z,54.40
2017-07-08T12:25:21.094Z,53.10
2017-07-08T12:27:49.413Z,52.30
2017-07-08T12:30:17.698Z,52.90
2017-07-08T12:32:45.966Z,54.30
2017-07-08T12:35:14.265Z,54.00
2017-07-08T12:37:42.536Z,53.80
2017-07-08T12:40:10.837Z,53.90
2017-07-08T12:42:39.092Z,54.20
2017-07-08T12:45:07.406Z,55.00
2017-07-08T12:47:35.676Z,52.80
2017-07-08T12:50:03.939Z,53.50
2017-07-08T12:52:32.243Z,54.20
2017-07-08T12:55:00.514Z,53.50
2017-07-08T12:57:28.787Z,52.80
2017-07-08T12:59:57.092Z,53.00
2017-07-08T13:02:25.393Z,52.10
2017-07-08T13:04:53.673Z,52.90
2017-07-08T13:07:21.945Z,53.60
2017-07-08T13:09:49.493Z,53.60
2017-07-08T13:12:17.799Z,52.10
2017-07-08T13:14:46.077Z,53.10
2017-07-08T13:17:14.380Z,52.30
2017-07-08T13:19:42.757Z,52.30
2017-07-08T13:22:11.108Z,51.70
2017-07-08T13:24:39.371Z,52.80
2017-07-08T13:27:07.698Z,52.80
2017-07-08T13:29:35.981Z,53.60
2017-07-08T13:32:04.292Z,53.60
2017-07-08T13:34:32.557Z,52.70
2017-07-08T13:37:00.866Z,53.40
2017-07-08T13:39:29.174Z,54.00
2017-07-08T13:41:57.477Z,52.90
2017-07-08T13:44:25.757Z,51.80
2017-07-08T13:46:54.091Z,52.10
2017-07-08T13:49:22.395Z,51.30
2017-07-08T13:51:51.656Z,52.00
2017-07-08T13:54:19.958Z,53.10
2017-07-08T13:56:48.227Z,52.70
2017-07-08T13:59:16.494Z,54.40
2017-07-08T14:01:44.850Z,52.00
2017-07-08T14:04:14.161Z,52.00
2017-07-08T14:06:42.440Z,51.90
2017-07-08T14:09:10.741Z,51.90
2017-07-08T14:11:39.038Z,49.30
2017-07-08T14:14:07.336Z,49.50
2017-07-08T14:16:35.663Z,49.20
2017-07-08T14:19:03.944Z,47.90
2017-07-08T14:21:32.224Z,49.70
2017-07-08T14:24:01.518Z,49.20
2017-07-08T14:26:29.785Z,52.00
2017-07-08T14:28:59.104Z,50.60
2017-07-08T14:31:27.382Z,49.80
2017-07-08T14:33:55.688Z,49.80
2017-07-08T14:36:23.960Z,52.80
2017-07-08T14:38:52.267Z,53.50
2017-07-08T14:41:20.539Z,52.80
2017-07-08T14:43:48.876Z,54.30
2017-07-08T14:46:17.149Z,51.20
2017-07-08T14:48:45.426Z,53.00
2017-07-08T14:51:13.729Z,52.90
2017-07-08T14:53:42.969Z,52.60
2017-07-08T14:56:11.240Z,52.20
2017-07-08T14:58:40.582Z,52.90
2017-07-08T15:01:08.840Z,53.00
2017-07-08T15:03:37.102Z,52.90
2017-07-08T15:06:05.418Z,53.80
2017-07-08T15:08:33.689Z,54.00
2017-07-08T15:11:01.958Z,54.10
2017-07-08T15:13:30.265Z,54.70
2017-07-08T15:15:58.542Z,54.30
2017-07-08T15:18:26.872Z,55.10
2017-07-08T15:20:55.137Z,55.80
2017-07-08T15:23:23.409Z,55.80
2017-07-08T15:25:51.705Z,55.00
2017-07-08T15:28:20.056Z,54.80
2017-07-08T15:30:48.370Z,55.70
2017-07-08T15:33:16.644Z,55.90
2017-07-08T15:35:44.937Z,56.20
2017-07-08T15:38:13.273Z,56.50
2017-07-08T15:40:41.544Z,57.00
2017-07-08T15:43:09.823Z,57.20
2017-07-08T15:45:38.121Z,56.90
2017-07-08T15:48:06.404Z,57.30
2017-07-08T15:50:34.743Z,57.00
2017-07-08T15:53:03.044Z,57.70
2017-07-08T15:55:31.316Z,57.50
2017-07-08T15:57:59.622Z,58.80
2017-07-08T16:00:27.907Z,59.90
2017-07-08T16:02:56.230Z,59.80
2017-07-08T16:05:23.730Z,59.80
2017-07-08T16:07:52.010Z,60.80
2017-07-08T16:10:20.309Z,60.00
2017-07-08T16:12:48.580Z,61.10
2017-07-08T16:15:16.884Z,60.40
2017-07-08T16:17:46.095Z,62.50
2017-07-08T16:20:14.366Z,62.90
2017-07-08T16:22:42.694Z,61.10
2017-07-08T16:25:10.970Z,61.60
2017-07-08T16:27:39.245Z,61.90
2017-07-08T16:30:07.541Z,62.60
2017-07-08T16:32:35.814Z,63.70
2017-07-08T16:35:04.140Z,60.30
2017-07-08T16:37:32.413Z,61.30
2017-07-08T16:40:00.694Z,61.60
2017-07-08T16:42:29.016Z,63.70
2017-07-08T16:44:57.346Z,65.70
2017-07-08T16:47:25.622Z,63.90
2017-07-08T16:49:53.929Z,64.70
2017-07-08T16:52:22.201Z,64.00
2017-07-08T16:54:50.497Z,64.10
2017-07-08T16:57:18.825Z,65.10
2017-07-08T16:59:47.090Z,64.70
2017-07-08T17:02:15.389Z,66.30
2017-07-08T17:04:43.697Z,66.50
2017-07-08T17:07:11.967Z,67.50
2017-07-08T17:09:40.297Z,67.50
2017-07-08T17:12:08.586Z,67.10
2017-07-08T17:14:36.861Z,66.40
2017-07-08T17:17:05.168Z,65.60
2017-07-08T17:19:33.435Z,65.60
2017-07-08T17:22:01.710Z,65.80
2017-07-08T17:24:30.015Z,66.30
2017-07-08T17:26:58.341Z,64.50
2017-07-08T17:29:26.614Z,65.50
2017-07-08T17:31:54.904Z,65.40
2017-07-08T17:34:23.213Z,67.20
2017-07-08T17:36:51.486Z,65.00
2017-07-08T17:39:19.765Z,68.50
2017-07-08T17:41:48.073Z,66.40
2017-07-08T17:44:16.361Z,67.30
2017-07-08T17:46:44.677Z,63.50
2017-07-08T17:49:12.953Z,63.60
2017-07-08T17:51:41.230Z,64.20
2017-07-08T17:54:09.562Z,64.70
2017-07-08T17:56:37.851Z,63.30
2017-07-08T17:59:06.137Z,64.10
2017-07-08T18:01:34.448Z,64.80
2017-07-08T18:04:02.756Z,66.60
2017-07-08T18:06:31.021Z,66.10
2017-07-08T18:08:59.294Z,67.00
2017-07-08T18:11:27.607Z,67.50
2017-07-08T18:13:55.925Z,67.60
2017-07-08T18:16:24.205Z,68.60
2017-07-08T18:18:51.722Z,68.60
2017-07-08T18:21:20.042Z,67.30
2017-07-08T18:23:48.352Z,67.70
2017-07-08T18:26:16.678Z,69.30
2017-07-08T18:28:44.953Z,70.20
2017-07-08T18:31:13.240Z,71.40
2017-07-08T18:33:41.553Z,71.80
2017-07-08T18:36:09.822Z,71.40
2017-07-08T18:38:38.139Z,71.60
2017-07-08T18:41:06.429Z,71.10
2017-07-08T18:43:34.711Z,72.00
2017-07-08T18:46:03.012Z,72.20
2017-07-08T18:48:31.298Z,72.20
2017-07-08T18:50:59.630Z,73.10
2017-07-08T18:53:27.902Z,73.70
2017-07-08T18:55:56.189Z,72.70
2017-07-08T18:58:24.503Z,73.10
2017-07-08T19:00:52.773Z,73.60
2017-07-08T19:03:21.049Z,74.20
2017-07-08T19:05:49.352Z,74.00
2017-07-08T19:08:17.669Z,75.00
2017-07-08T19:10:45.954Z,74.80
2017-07-08T19:13:14.241Z,75.20
2017-07-08T19:15:42.556Z,75.40
2017-07-08T19:18:10.839Z,76.40
2017-07-08T19:20:39.157Z,76.80
2017-07-08T19:23:07.445Z,76.80
2017-07-08T19:25:35.719Z,77.50
2017-07-08T19:28:03.272Z,77.50
2017-07-08T19:30:31.559Z,79.00
2017-07-08T19:32:59.840Z,79.00
2017-07-08T19:35:28.165Z,78.60
2017-07-08T19:37:56.446Z,78.60
2017-07-08T19:40:24.726Z,79.10
2017-07-08T19:42:53.030Z,78.30
2017-07-08T19:45:21.320Z,78.20
2017-07-08T19:47:49.629Z,79.30
2017-07-08T19:50:18.901Z,79.50
2017-07-08T19:52:47.177Z,79.30
2017-07-08T19:55:15.486Z,78.60
2017-07-08T19:57:43.760Z,79.00
2017-07-08T20:00:12.084Z,79.10
2017-07-08T20:02:40.360Z,77.80
2017-07-08T20:05:08.646Z,78.20
2017-07-08T20:07:37.038Z,77.80
2017-07-08T20:10:05.257Z,78.10
2017-07-08T20:12:33.533Z,77.90
2017-07-08T20:15:01.840Z,78.20
2017-07-08T20:17:30.118Z,77.50
2017-07-08T20:19:58.391Z,77.90
2017-07-08T20:22:26.716Z,77.40
2017-07-08T20:24:54.996Z,78.10
2017-07-08T20:27:23.269Z,77.80
2017-07-08T20:29:51.594Z,77.40
2017-07-08T20:32:19.869Z,76.70
2017-07-08T20:34:48.230Z,78.20
2017-07-08T20:37:15.746Z,78.20
2017-07-08T20:39:44.050Z,77.00
2017-07-08T20:42:12.360Z,77.70
2017-07-08T20:44:40.658Z,76.80
2017-07-08T20:47:08.973Z,77.00
2017-07-08T20:49:37.249Z,77.60
2017-07-08T20:52:05.521Z,78.10
2017-07-08T20:54:33.833Z,78.30
2017-07-08T20:57:02.096Z,80.00
2017-07-08T20:59:29.654Z,79.10
2017-07-08T21:01:57.929Z,78.60
2017-07-08T21:04:26.204Z,78.90
2017-07-08T21:06:54.553Z,79.50
2017-07-08T21:09:22.831Z,79.40
2017-07-08T21:11:51.103Z,79.50
2017-07-08T21:14:19.410Z,80.00
2017-07-08T21:16:47.691Z,80.10
2017-07-08T21:19:15.194Z,80.10
2017-07-08T21:21:43.505Z,81.10
2017-07-08T21:24:11.779Z,81.10
2017-07-08T21:26:40.053Z,80.60
2017-07-08T21:29:08.356Z,81.20
2017-07-08T21:31:36.644Z,81.70
2017-07-08T21:34:04.969Z,81.70
2017-07-08T21:36:33.248Z,81.90
2017-07-08T21:39:01.537Z,81.40
2017-07-08T21:41:29.853Z,82.10
2017-07-08T21:43:58.133Z,81.80
2017-07-08T21:46:26.423Z,81.80
2017-07-08T21:48:54.746Z,82.10
2017-07-08T21:51:23.033Z,82.10
2017-07-08T21:53:51.307Z,82.10
2017-07-08T21:56:19.683Z,82.40
2017-07-08T21:58:47.958Z,82.20
2017-07-08T22:01:16.567Z,82.40
2017-07-08T22:03:44.881Z,83.00
2017-07-08T22:06:13.213Z,83.30
2017-07-08T22:08:41.497Z,83.40
2017-07-08T22:11:09.782Z,83.60
2017-07-08T22:13:38.105Z,84.10
2017-07-08T22:16:06.391Z,84.10
2017-07-08T22:18:33.910Z,84.00
2017-07-08T22:21:02.233Z,84.30
2017-07-08T22:23:30.929Z,83.60
2017-07-08T22:25:59.276Z,83.70
2017-07-08T22:28:27.608Z,83.10
2017-07-08T22:30:55.994Z,83.70
2017-07-08T22:33:24.312Z,84.50
2017-07-08T22:35:52.654Z,85.20
2017-07-08T22:38:21.003Z,85.20
2017-07-08T22:40:49.331Z,85.70
2017-07-08T22:43:17.688Z,86.20
2017-07-08T22:45:46.013Z,85.30
2017-07-08T22:48:14.399Z,84.80
2017-07-08T22:50:41.949Z,84.80
2017-07-08T22:53:10.300Z,86.00
2017-07-08T22:55:38.645Z,86.50
2017-07-08T22:58:06.987Z,86.00
2017-07-08T23:00:35.344Z,85.60
2017-07-08T23:03:03.663Z,85.70
2017-07-08T23:05:31.977Z,86.20
2017-07-08T23:08:00.327Z,85.70
2017-07-08T23:10:28.669Z,85.60
2017-07-08T23:12:56.986Z,85.80
2017-07-08T23:15:25.307Z,85.60
2017-07-08T23:17:53.671Z,85.80
2017-07-08T23:20:21.993Z,85.60
2017-07-08T23:22:50.321Z,85.60
2017-07-08T23:25:18.662Z,85.60
2017-07-08T23:27:46.975Z,85.60
2017-07-08T23:30:15.332Z,86.60
2017-07-08T23:32:43.659Z,86.40
2017-07-08T23:35:12.008Z,86.00
2017-07-08T23:37:40.354Z,85.80
2017-07-08T23:40:08.695Z,86.50
2017-07-08T23:42:37.052Z,86.00
2017-07-08T23:45:05.366Z,86.30
2017-07-08T23:47:32.916Z,86.30
2017-07-08T23:50:01.251Z,86.10
2017-07-08T23:52:29.616Z,85.60
2017-07-08T23:54:57.938Z,86.00
2017-07-08T23:57:26.267Z,86.10
2017-07-08T23:59:54.644Z,86.00
